KRBG/RBG METAR and TAF weather

Enter ICAO airport designator
Station Type Date Time Source
KRBG METAR 2021/09/20 05:53 UTC NOAA

KRBG 200553Z AUTO 00000KT 10SM CLR 13/10 A3030 RMK AO2 SLP260 T01280100 10206 20128 51022


Station Type Date Time Source
KRBG Decoded METAR 2021/09/20 05:53 UTC NOAA

ROSEBURG REGIONAL AIRPORT, OR, United States (KRBG) 43-14N 123-21W 154M
Sep 20, 2021 - 01:53 AM EDT / 2021.09.20 0553 UTC
Wind: Calm:0
Visibility: 10 mile(s):0
Sky conditions: clear
Temperature: 55.0 F (12.8 C)
Dew Point: 50.0 F (10.0 C)
Relative Humidity: 83%
Pressure (altimeter): 30.3 in. Hg (1026 hPa)
Pressure tendency: 0.06 inches (2.2 hPa) higher than three hours ago
ob: KRBG 200553Z AUTO 00000KT 10SM CLR 13/10 A3030 RMK AO2 SLP260 T01280100 10206 20128 51022
cycle: 6

Station Type Date Time Source
KRBG TAF 2021/09/20 06:40 UTC NOAA

TAF KRBG 200537Z 2006/2106 01004KT P6SM SKC
FM200800 00000KT P6SM SCT002
FM201600 VRB03KT P6SM SKC

Example: see airport list